Timeline UpdatesTrip UpdatesNews PostsPvt Posts♥♥Travel TipsAdmin PostsConv PostsFollowed PostsChat RequestsBlog PostsPNR Posts

Disclaimer
Search
 
 
Mon Nov 24, 2014 01:22:23 ISTHomeTrainsΣChainsAtlasPNRForumGalleryNewsFAQTripsMembersLoginFeedback
No Recent News for this Train
Other Trains in the News **new
Latest...
Will stop at Magra on 23/9/14 #1220549
Sun Sep 21, 2014 (06:10PM)
⇐ Return Journey: Train# 53044

53043/Howrah - Rajgir Fast Passenger (UnReserved)

Time-Table HAS CHANGED.
Sep 21 2014 (6:10PM)
Change Departure Station:
Change Arrival Station:
Post a Train Travel TipPost a Train Travel Tip **new
Post a Comment/Question/Picture/VideoPost a Comment/Question/Picture/Video
Pantry/Catering
✕ NO Pantry Car
✕ NO Catering
Loco/Rake Reversals
BKP/Bakhtiyarpur Junction (5);
RSA - Rake Sharing
Rake/Coach Composition
Loco
HWH WDM 3A/3D
News    PNR    Forum    Time-Table    Availability    Fare Chart    Map    Arr/Dep History    Trips    Gallery    ΣChains    X/O    Timeline    
Travel Time: 23h 45m    80 halts    Distance: 656 km    Avg Speed: 27 km/hr
Type: Passenger
Zone: ER/Eastern
Departs @ 11:10 (Avg 2m late)
Platform# 10
SMTWTFS
Kolkata Howrah Junction/HWH 
Arrives @ 10:55 +1 night (Avg 1h 4m late)
Platform# ???
SMTWTFS
Rajgir/RGD 

80 halts. 160 intermediate Stations between Kolkata Howrah Junction and Rajgir

Show ALL intermediate Stations  Show Old Time-Table

#TrkCodeStation NameX/OArrivesAvgDepartsAvgHaltPFDay#KmSpeedElevZoneAddress
1/==/HWHKolkata Howrah Junction (23)»  -11:10+21010.04510mERHowrah 711101, West Bengal
2/==/SRPSerampore (4)X  11:36+1411:39+133m--119.53811mERdist - hooghly, West Bengal
3/==/SHESeoraphuli Junction (6)  11:43+1411:45+152m--122.17113mERBaidyabati, West Bengal
4/==/CGRChandan Nagar (3)X  11:54+1811:57+203m--132.76016mERDist -HOOGHLY - 712136, West Bengal
5/==/CNSChuchura (3)X  12:00-12:01-1m--135.72515mERDist - HOOGHLY - 712102, West Bengal
6/==/BDCBandel Junction (7)X  12:10+1912:14+184m--139.57514mERdist - HOOGHLY, West Bengal
7/==/PDAPundooah (3)  12:31+2812:32+281m--160.77018mERPandua, West Bengal
8/==/MYMMemari (4)  12:49 12:50+3012:50 12:51+301m--181.76025mERMemari, West Bengal
9/==/BWNBarddhaman Junction (8)X  13:16+1513:21+185m--1106.74634mERDist - Barddhaman, West Bengal
10/==%KANKhana Junction (5)X  13:37 13:38+4513:38 13:39+461m11119.85942mERDist - Bardhaman, West Bengal
11%==%JTLJhapater Dhal (4)  13:45+4413:46+451m--1125.73836mERDist - Bardhaman, West Bengal
12%==%BPSBanpas (3)  13:52+4813:53+481m--1129.53746mERDist - Bardhaman, West Bengal
13%==%NRXNoadar Dhal (2)  13:59+5214:00+541m--1133.25546mERdist - bardhaman, West Bengal
14%==%GKHGuskara (2)  14:07+5214:12+495m21139.67441mERDist - Bardhaman, West Bengal
15%==%PCQPichkurirdhal (3)X  14:17+5314:18+551m--1145.85738mERDist - Bardhaman, West Bengal
16%==%BDHBhedia (2)X  14:23+5214:24+531m--1150.55341mERDist - Bardhaman, West Bengal
17%==%BHPBolpur Shantiniketan (3)  14:33+3514:36+353m--1158.54259mERDist - Birbhum, West Bengal
18%==%PNEPrantik (3)  14:42+4714:43+501m--1162.74748mERDist - Birbhum, West Bengal
19%==%KPLEKopai (2)X  14:52+5914:53+1:041m--1169.86148mERDist - Birbhum, West Bengal
20%==%AMPAhmadpur Junction (3)X  15:01+1:1315:02+1:131m--1178.05646mERDist - Birbhum, West Bengal
21%==%BSLEBataspur (2)  15:08+1:0815:09+1:151m--1183.65154mERDist - Birbhum, West Bengal
22%==%SNTSainthia Junction (4)X  15:18+1:0315:20+1:082m31191.28758mERDist - Birbhum, West Bengal
23%==%GHLEGadadharpur (3)X  15:25+1:2515:26+1:331m11198.57152mERDist - Birbhum, West Bengal
24%==%MLVMallarpur (3)  15:33+1:3715:34+1:371m--1206.85246mERDist - Birbhum, West Bengal
25%==%TPFTarapith Road (2)X  15:40+1:3815:41+1:381m--1212.02345mERDist - Birbhum, West Bengal
26%==%RPHRampurhat (3)X  16:01 16:00+1:2116:08+1:237 8m--1219.25041mERDIST - Birbhum, West Bengal
27%==%NHTNalhati Junction (4)X  16:25+1:3516:27+1:362m31233.38648mERDist - Birbhum, West Bengal
28%==%CTRChatra (3)  16:33+1:3816:34+1:381m--1241.96542mERDist - Birbhum, West Bengal
29%==%MRRMurarai (3)  16:41+1:4116:42+1:431m--1249.55036mERDist - Birbhum, West Bengal
30%==%BSBRBanshlai Bridge (2)  17:05 16:48+1:4717:06 16:49+1:501m--1254.56735mERDist - Birbhum, West Bengal
31%==%RJGRajgram (3)XO  17:46 16:55+1:4417:48 16:56+1:442 1m31261.2532mERDist - Birbhum, West Bengal
32%==%NGFNagarnabi (3)  17:54+1:0117:56+1:002m31266.44630mERState Highway 5, Jharkhand
33%==%PKRPakur (2)  18:03+5918:07+1:004m11271.85137mERDist:- Pakur, Jharkhand
34%==%TBBTilbhita (3)  18:12+1:0818:13+1:091m--1276.04531mERTilbhita, Jharkhand
35%==%KLPKotalpukur (3)X  18:23+1:0618:24+1:101m--1283.62240mERKotalpukur, Jharkhand
36%==%GMANGumani (3)  18:42+1:0118:43+1:031m--1290.24431mERGumani, Jharkhand
37|==|BHWBarharwa Junction (3)X  18:53+1:0718:58+1:125m11297.65336mERBarharwa, Jharkhand
38|==|BKLEBakudi (3)  19:07+1:1419:08+1:151m--1305.56665mERBakudi, Jharkhand
39|==!TPHTinpahar Junction (3)  19:17 19:16+1:2319:19 19:18+1:302m11314.35845mERBamangawan, Jharkhand
40!==!KXEKalian Chak  19:24 19:23+1:3419:25 19:24+1:431m--1319.15845mERKalian Chak, Jharkhand
41!==!TLJTaljhariX  19:30 19:29+1:4619:31 19:30+1:531m--1323.91538mERTaljhari, Jharkhand
42!==!MJPMaharajpur (2)X  20:25+1:1320:32+1:247m--1338.14134mERMoharajpur, Jharkhand
43!==!SLJSakrigali Junction (3)X  20:40 20:41+1:2520:46+1:296 5m--1344.32945mERSakrigali, Jharkhand
44!==!SBGSahibganj Junction (3)X  21:02+1:1221:12+1:2210m21352.03538mERSahibganj, Jharkhand
45!==!MZCMirza Cheuki (3)  21:38+1:3421:40+1:352m11367.13638mERBihar, Bihar
46!==!PPTPirpainti (2)X  21:54+1:3122:02+1:388m--1375.63653mERBhagalpur, Bihar
47!==!SVRPShivanarayanpur (2)X  22:17+1:3322:18+1:351m--1384.54047mERShivanarayanpur, Bihar
48!==!CLGKahalgaon (2)O  22:36 22:35+1:3822:57 22:36+1:4821 1m21396.0944mERBhagalpur, Bihar
49!==!EKCEkchari (1)  23:04+1:2823:05+1:291m11400.36937mERNational Highway 80, Bihar
50!==!GGAGhoga (2)  23:10+1:3323:15+1:365m--1406.05842mERGhoga, Bihar
51!==!LMMLailakh Mamalkha (2)  23:21+1:3823:22+1:411m--1411.84036mERLailakh Mamlkha, Bihar
52!==!SBOSabaur (3)  23:32+1:4023:34+1:422m--1418.54542mERSabour, Bihar
53!==|BGPBhagalpur Junction (6)X  23:44+5923:59+5915m--1426.02649mERBhagalpur, Bihar
54|==|NATNathnagar (2)  00:10+1:4400:11+1:441m--2430.79948mERBhagalpur, Bihar
55|==|AKNAkbarnagar (3)  00:19+1:4900:21+1:492m--2440.94139mERTilakpur, Bihar
56|==|MVVMaheshi (2) new halt!!  00:26-00:27-1m--2444.36637mERTilakpur, Bihar
57|==|SGGSultanGanj (3)  00:33+1:3800:37+1:424m--2451.06042mERSultanganj, Bihar
58|==|BUPBariarpur (3)  00:55+2:0000:57+2:052m--2468.91642mERMunger, Bihar
59|-=|JMPJamalpur Junction (4)X  01:38+1:4101:48+1:4610m--2480.04359mERDist: Munger 06344-243101, Bihar
60|==|DRTPDasharathpur (2)  01:57+2:0701:59+2:072m--2486.46548mERDharhara, Bihar
61|==|DRHDharhara (2)  02:04+2:1102:06+2:102m--2491.96055mERDharhara, Bihar
62|==|MSDNMasudan (2)  02:12+2:1102:13+2:111m--2497.84845mERMasudan, Bihar
63|==|AHAAbhaipur (3)  02:18+2:1102:19+2:181m--2501.96252mERAbhaipur, Bihar
64!==!KJHKajra (2)X  02:23 02:26+2:2002:25 02:28+2:232m--2509.12950mERLakhisarai District, Bihar
65!==!DNREDhanauri  02:48+2:1702:50+2:212m--2518.81848mERNational Highway 80, Bihar
66|-=!KIULKiul Junction (5)XO  03:10+2:2603:38+2:2228m--2524.91053mECRDist. Lakhisarai, Bihar
67/==/LKRLuckeesarai Junction (2)X  03:46+2:1603:48+2:162m--2526.25652mECRLakhisarai, Bihar
68/==/MKBMankathaX  03:54+2:2803:55+2:281m--2531.83847mECRNational Highway 80, Bihar
69/-=/BRYABarhiya (3)XO  04:10+2:2204:12+2:272m--2541.2747mECRBarahiya, Bihar
70/==/RDUMRampur Dumra (3)O  05:02+1:5805:04+1:582m--2546.81046mECRNational Highway 80, Bihar
71/==/HTZHathidah Junction (2)O  05:27+1:4005:29+1:402m22550.62050mECRMusahari, Bihar
72/==/MKAMokama Junction (4)X  05:54+1:2905:56+1:362m--2559.01248mECRPatna, Bihar
73/==/MORMor (2)  06:34+1:1006:36+1:092m--2566.32746mECRMor, Bihar
74/==/PHKPunarakh (2)  06:54+1:0606:55+1:061m--2574.54751mECRPunarakh, Bihar
75/==/BARHBarh (3)X  07:08+1:1707:10+1:202m--2584.74249mECRBarh, Bihar
76/==/ATLAthmal Gola (2)  07:23+1:0807:25+1:102m--2593.83652mECRPatna, Bihar
77/==/BKPBakhtiyarpur Junction (5)07:40+1:0808:05+1:4225m--2602.86451mECRPatna, Bihar
78|--|HRTHarnaut (3)  08:15+1:5108:16+1:551m--2613.54449mECRHarnaut, Bihar
79|--|WENAWena (2)  08:23+1:5608:24+2:001m--2618.73147mECRWena, Bihar
80|--|BEHSBihar Sharif (2)  08:51+1:5508:52+2:011m--2632.63456mECR06112-222306, Bihar
81|--|NLDNalanda (2)X  09:14+1:4409:15+2:101m--2645.2763mECRNational Highway 82, Bihar
82|--|RGDRajgir (3)•  10:55+1:04---2656.4-71mECRRajgir, Bihar
Scroll to Top
Scroll to Bottom